sensor_id;sensor_type;location;lat;lon;timestamp;pressure;altitude;pressure_sealevel;temperature;humidity
64402;BME280;50724;42.376;23.768;2023-03-13T00:00:33;93307.19;;;-2.33;77.33
64402;BME280;50724;42.376;23.768;2023-03-13T00:03:33;93311.78;;;-2.24;76.73
64402;BME280;50724;42.376;23.768;2023-03-13T00:06:38;93306.00;;;-2.27;77.42
64402;BME280;50724;42.376;23.768;2023-03-13T00:09:38;93304.69;;;-2.19;76.45
64402;BME280;50724;42.376;23.768;2023-03-13T00:12:39;93310.59;;;-2.32;76.91
64402;BME280;50724;42.376;23.768;2023-03-13T00:15:39;93307.84;;;-2.29;76.96
64402;BME280;50724;42.376;23.768;2023-03-13T00:18:47;93311.06;;;-2.26;76.84
64402;BME280;50724;42.376;23.768;2023-03-13T00:21:48;93311.31;;;-2.30;77.40
64402;BME280;50724;42.376;23.768;2023-03-13T00:24:49;93313.94;;;-2.16;76.53
64402;BME280;50724;42.376;23.768;2023-03-13T00:27:50;93317.81;;;-2.25;77.18
64402;BME280;50724;42.376;23.768;2023-03-13T00:30:50;93317.25;;;-2.30;77.33
64402;BME280;50724;42.376;23.768;2023-03-13T00:33:53;93319.28;;;-2.50;77.82
64402;BME280;50724;42.376;23.768;2023-03-13T00:36:54;93319.19;;;-2.64;78.41
64402;BME280;50724;42.376;23.768;2023-03-13T00:39:55;93310.72;;;-2.65;79.35
64402;BME280;50724;42.376;23.768;2023-03-13T00:42:55;93308.72;;;-2.60;78.84
64402;BME280;50724;42.376;23.768;2023-03-13T00:45:56;93310.47;;;-2.60;80.11
64402;BME280;50724;42.376;23.768;2023-03-13T00:48:57;93314.00;;;-2.79;80.43
64402;BME280;50724;42.376;23.768;2023-03-13T00:51:57;93309.56;;;-2.75;80.69
64402;BME280;50724;42.376;23.768;2023-03-13T00:54:58;93314.09;;;-2.80;80.43
64402;BME280;50724;42.376;23.768;2023-03-13T00:57:58;93309.28;;;-2.55;79.84
64402;BME280;50724;42.376;23.768;2023-03-13T01:01:23;93316.56;;;-2.63;79.66
64402;BME280;50724;42.376;23.768;2023-03-13T01:04:24;93310.53;;;-2.62;78.94
64402;BME280;50724;42.376;23.768;2023-03-13T01:07:25;93310.53;;;-2.62;78.59
64402;BME280;50724;42.376;23.768;2023-03-13T01:10:26;93311.38;;;-2.61;78.58
64402;BME280;50724;42.376;23.768;2023-03-13T01:13:28;93304.84;;;-2.67;78.84
64402;BME280;50724;42.376;23.768;2023-03-13T01:16:31;93314.28;;;-2.67;78.92
64402;BME280;50724;42.376;23.768;2023-03-13T01:19:33;93328.38;;;-2.76;79.95
64402;BME280;50724;42.376;23.768;2023-03-13T01:22:33;93324.19;;;-2.77;80.32
64402;BME280;50724;42.376;23.768;2023-03-13T01:25:35;93323.50;;;-2.81;80.95
64402;BME280;50724;42.376;23.768;2023-03-13T01:28:37;93328.94;;;-2.71;80.68
64402;BME280;50724;42.376;23.768;2023-03-13T01:31:38;93317.88;;;-2.71;78.74
64402;BME280;50724;42.376;23.768;2023-03-13T01:34:38;93324.34;;;-2.80;80.02
64402;BME280;50724;42.376;23.768;2023-03-13T01:37:39;93330.34;;;-2.97;80.73
64402;BME280;50724;42.376;23.768;2023-03-13T01:40:45;93334.66;;;-2.82;80.74
64402;BME280;50724;42.376;23.768;2023-03-13T01:43:47;93333.56;;;-2.62;79.51
64402;BME280;50724;42.376;23.768;2023-03-13T01:46:47;93326.88;;;-2.64;80.21
64402;BME280;50724;42.376;23.768;2023-03-13T01:49:49;93340.44;;;-2.78;81.11
64402;BME280;50724;42.376;23.768;2023-03-13T01:52:51;93339.34;;;-2.74;80.68
64402;BME280;50724;42.376;23.768;2023-03-13T01:55:53;93343.56;;;-2.73;80.03
64402;BME280;50724;42.376;23.768;2023-03-13T01:58:55;93350.09;;;-2.67;79.64
64402;BME280;50724;42.376;23.768;2023-03-13T02:01:59;93350.16;;;-2.69;78.92
64402;BME280;50724;42.376;23.768;2023-03-13T02:05:03;93351.84;;;-2.68;78.73
64402;BME280;50724;42.376;23.768;2023-03-13T02:08:11;93357.09;;;-2.71;79.00
64402;BME280;50724;42.376;23.768;2023-03-13T02:14:49;93362.06;;;-2.68;79.03
64402;BME280;50724;42.376;23.768;2023-03-13T02:17:50;93357.28;;;-2.58;78.69
64402;BME280;50724;42.376;23.768;2023-03-13T02:20:54;93360.91;;;-2.62;78.67
64402;BME280;50724;42.376;23.768;2023-03-13T02:24:05;93364.22;;;-2.60;78.75
64402;BME280;50724;42.376;23.768;2023-03-13T02:27:07;93370.38;;;-2.64;78.59
64402;BME280;50724;42.376;23.768;2023-03-13T02:30:09;93366.69;;;-2.28;76.67
64402;BME280;50724;42.376;23.768;2023-03-13T02:33:11;93363.66;;;-2.04;75.25
64402;BME280;50724;42.376;23.768;2023-03-13T02:36:15;93377.03;;;-1.99;74.64
64402;BME280;50724;42.376;23.768;2023-03-13T02:39:17;93373.31;;;-2.10;75.05
64402;BME280;50724;42.376;23.768;2023-03-13T02:42:20;93372.13;;;-2.18;75.24
64402;BME280;50724;42.376;23.768;2023-03-13T02:45:22;93374.31;;;-2.12;74.81
64402;BME280;50724;42.376;23.768;2023-03-13T02:48:41;93369.13;;;-2.26;75.65
64402;BME280;50724;42.376;23.768;2023-03-13T02:51:43;93380.91;;;-2.53;76.11
64402;BME280;50724;42.376;23.768;2023-03-13T02:54:47;93382.03;;;-2.59;76.84
64402;BME280;50724;42.376;23.768;2023-03-13T02:57:49;93389.28;;;-2.67;77.02
64402;BME280;50724;42.376;23.768;2023-03-13T03:00:51;93396.97;;;-2.83;78.49
64402;BME280;50724;42.376;23.768;2023-03-13T03:03:52;93402.25;;;-2.86;78.60
64402;BME280;50724;42.376;23.768;2023-03-13T03:06:52;93401.59;;;-2.89;78.50
64402;BME280;50724;42.376;23.768;2023-03-13T03:09:53;93392.44;;;-2.78;77.83
64402;BME280;50724;42.376;23.768;2023-03-13T03:12:54;93401.44;;;-2.86;77.63
64402;BME280;50724;42.376;23.768;2023-03-13T03:15:54;93409.69;;;-3.14;79.20
64402;BME280;50724;42.376;23.768;2023-03-13T03:18:54;93412.50;;;-3.18;82.31
64402;BME280;50724;42.376;23.768;2023-03-13T03:21:55;93424.41;;;-3.02;81.22
64402;BME280;50724;42.376;23.768;2023-03-13T03:24:56;93426.78;;;-3.14;80.95
64402;BME280;50724;42.376;23.768;2023-03-13T03:27:56;93423.06;;;-3.09;81.74
64402;BME280;50724;42.376;23.768;2023-03-13T03:30:56;93427.88;;;-3.35;81.53
64402;BME280;50724;42.376;23.768;2023-03-13T03:33:57;93433.66;;;-3.32;82.17
64402;BME280;50724;42.376;23.768;2023-03-13T03:36:57;93429.00;;;-3.41;82.81
64402;BME280;50724;42.376;23.768;2023-03-13T03:39:58;93428.41;;;-3.29;82.77
64402;BME280;50724;42.376;23.768;2023-03-13T03:42:58;93442.31;;;-3.34;82.98
64402;BME280;50724;42.376;23.768;2023-03-13T03:46:08;93442.81;;;-3.28;83.34
64402;BME280;50724;42.376;23.768;2023-03-13T03:49:26;93441.03;;;-3.43;83.48
64402;BME280;50724;42.376;23.768;2023-03-13T03:52:26;93444.25;;;-3.39;83.58
64402;BME280;50724;42.376;23.768;2023-03-13T03:55:27;93447.66;;;-3.39;82.83
64402;BME280;50724;42.376;23.768;2023-03-13T03:58:27;93465.41;;;-3.36;82.32
64402;BME280;50724;42.376;23.768;2023-03-13T04:01:28;93462.75;;;-3.34;82.05
64402;BME280;50724;42.376;23.768;2023-03-13T04:04:28;93455.16;;;-3.53;81.86
64402;BME280;50724;42.376;23.768;2023-03-13T04:07:28;93461.94;;;-3.52;83.02
64402;BME280;50724;42.376;23.768;2023-03-13T04:10:29;93474.56;;;-3.49;83.59
64402;BME280;50724;42.376;23.768;2023-03-13T04:13:29;93483.50;;;-3.58;83.70
64402;BME280;50724;42.376;23.768;2023-03-13T04:16:30;93484.94;;;-3.52;83.38
64402;BME280;50724;42.376;23.768;2023-03-13T04:19:30;93482.31;;;-3.51;82.77
64402;BME280;50724;42.376;23.768;2023-03-13T04:22:30;93492.50;;;-3.16;81.48
64402;BME280;50724;42.376;23.768;2023-03-13T04:25:31;93501.09;;;-3.17;81.35
64402;BME280;50724;42.376;23.768;2023-03-13T04:28:31;93492.38;;;-3.30;81.60
64402;BME280;50724;42.376;23.768;2023-03-13T04:31:32;93502.91;;;-3.19;82.33
64402;BME280;50724;42.376;23.768;2023-03-13T04:34:32;93508.69;;;-2.99;80.73
64402;BME280;50724;42.376;23.768;2023-03-13T04:37:33;93506.13;;;-3.16;81.19
64402;BME280;50724;42.376;23.768;2023-03-13T04:40:34;93510.88;;;-3.25;81.92
64402;BME280;50724;42.376;23.768;2023-03-13T04:43:34;93511.78;;;-3.43;84.03
64402;BME280;50724;42.376;23.768;2023-03-13T04:46:34;93523.97;;;-3.31;84.21
64402;BME280;50724;42.376;23.768;2023-03-13T04:49:35;93519.75;;;-3.32;83.59
64402;BME280;50724;42.376;23.768;2023-03-13T04:52:35;93521.19;;;-3.44;83.68
64402;BME280;50724;42.376;23.768;2023-03-13T04:55:36;93523.59;;;-3.24;83.49
64402;BME280;50724;42.376;23.768;2023-03-13T04:58:36;93527.00;;;-2.41;82.89
64402;BME280;50724;42.376;23.768;2023-03-13T05:01:37;93530.41;;;-0.87;75.36
64402;BME280;50724;42.376;23.768;2023-03-13T05:04:37;93531.50;;;0.75;67.43
64402;BME280;50724;42.376;23.768;2023-03-13T05:07:38;93553.91;;;0.20;68.51
64402;BME280;50724;42.376;23.768;2023-03-13T05:10:40;93540.63;;;1.32;65.18
64402;BME280;50724;42.376;23.768;2023-03-13T05:13:40;93548.47;;;1.31;62.84
64402;BME280;50724;42.376;23.768;2023-03-13T05:16:41;93556.72;;;1.99;62.59
64402;BME280;50724;42.376;23.768;2023-03-13T05:19:41;93547.56;;;4.29;53.98
64402;BME280;50724;42.376;23.768;2023-03-13T05:22:41;93551.00;;;5.78;50.58
64402;BME280;50724;42.376;23.768;2023-03-13T05:25:42;93559.22;;;7.04;46.33
64402;BME280;50724;42.376;23.768;2023-03-13T05:28:42;93562.59;;;6.15;46.93
64402;BME280;50724;42.376;23.768;2023-03-13T05:31:43;93563.06;;;6.20;46.01
64402;BME280;50724;42.376;23.768;2023-03-13T05:34:43;93556.91;;;5.28;47.51
64402;BME280;50724;42.376;23.768;2023-03-13T05:37:44;93569.75;;;3.76;51.24
64402;BME280;50724;42.376;23.768;2023-03-13T05:40:45;93569.75;;;3.06;53.93
64402;BME280;50724;42.376;23.768;2023-03-13T05:43:45;93573.00;;;1.49;57.88
64402;BME280;50724;42.376;23.768;2023-03-13T05:46:46;93571.84;;;1.01;60.20
64402;BME280;50724;42.376;23.768;2023-03-13T05:49:46;93568.38;;;1.02;61.15
64402;BME280;50724;42.376;23.768;2023-03-13T05:52:47;93568.50;;;1.13;63.40
64402;BME280;50724;42.376;23.768;2023-03-13T05:55:47;93577.91;;;1.27;64.42
64402;BME280;50724;42.376;23.768;2023-03-13T05:58:47;93584.97;;;1.11;65.22
64402;BME280;50724;42.376;23.768;2023-03-13T06:01:48;93584.66;;;1.42;64.17
64402;BME280;50724;42.376;23.768;2023-03-13T06:04:48;93579.97;;;1.34;64.48
64402;BME280;50724;42.376;23.768;2023-03-13T06:07:49;93590.66;;;1.16;64.41
64402;BME280;50724;42.376;23.768;2023-03-13T06:10:50;93593.00;;;1.06;64.01
64402;BME280;50724;42.376;23.768;2023-03-13T06:13:51;93587.13;;;1.04;64.37
64402;BME280;50724;42.376;23.768;2023-03-13T06:16:53;93594.84;;;1.31;62.88
64402;BME280;50724;42.376;23.768;2023-03-13T06:19:54;93592.88;;;1.34;62.86
64402;BME280;50724;42.376;23.768;2023-03-13T06:22:54;93595.63;;;1.31;62.74
64402;BME280;50724;42.376;23.768;2023-03-13T06:25:55;93589.47;;;1.34;63.55
64402;BME280;50724;42.376;23.768;2023-03-13T06:28:55;93594.97;;;1.55;63.18
64402;BME280;50724;42.376;23.768;2023-03-13T06:31:56;93588.31;;;1.90;61.93
64402;BME280;50724;42.376;23.768;2023-03-13T06:34:56;93595.00;;;2.05;61.08
64402;BME280;50724;42.376;23.768;2023-03-13T06:37:56;93605.00;;;2.22;61.27
64402;BME280;50724;42.376;23.768;2023-03-13T06:40:57;93602.00;;;2.03;61.12
64402;BME280;50724;42.376;23.768;2023-03-13T06:43:57;93606.00;;;2.32;60.00
64402;BME280;50724;42.376;23.768;2023-03-13T06:46:58;93605.16;;;2.57;56.92
64402;BME280;50724;42.376;23.768;2023-03-13T06:49:58;93605.03;;;2.58;59.48
64402;BME280;50724;42.376;23.768;2023-03-13T06:52:59;93605.00;;;2.71;58.39
64402;BME280;50724;42.376;23.768;2023-03-13T06:55:59;93609.06;;;2.86;58.39
64402;BME280;50724;42.376;23.768;2023-03-13T06:59:01;93607.56;;;2.84;57.32
64402;BME280;50724;42.376;23.768;2023-03-13T07:02:01;93603.63;;;2.91;57.54
64402;BME280;50724;42.376;23.768;2023-03-13T07:05:02;93602.34;;;3.20;56.74
64402;BME280;50724;42.376;23.768;2023-03-13T07:08:05;93598.19;;;3.41;57.32
64402;BME280;50724;42.376;23.768;2023-03-13T07:11:08;93597.44;;;3.52;57.76
64402;BME280;50724;42.376;23.768;2023-03-13T07:14:08;93607.13;;;3.72;55.93
64402;BME280;50724;42.376;23.768;2023-03-13T07:17:09;93600.63;;;3.31;56.73
64402;BME280;50724;42.376;23.768;2023-03-13T07:20:10;93606.28;;;3.60;55.43
64402;BME280;50724;42.376;23.768;2023-03-13T07:23:10;93599.38;;;3.83;55.48
64402;BME280;50724;42.376;23.768;2023-03-13T07:26:13;93594.97;;;4.07;55.71
64402;BME280;50724;42.376;23.768;2023-03-13T07:29:14;93589.34;;;4.35;54.23
64402;BME280;50724;42.376;23.768;2023-03-13T07:32:14;93591.56;;;4.51;53.37
64402;BME280;50724;42.376;23.768;2023-03-13T07:35:15;93573.19;;;4.65;54.30
64402;BME280;50724;42.376;23.768;2023-03-13T07:38:17;93573.88;;;4.89;53.18
64402;BME280;50724;42.376;23.768;2023-03-13T07:41:18;93587.13;;;5.18;52.53
64402;BME280;50724;42.376;23.768;2023-03-13T07:44:19;93564.03;;;5.15;53.30
64402;BME280;50724;42.376;23.768;2023-03-13T07:47:20;93563.91;;;5.16;52.95
64402;BME280;50724;42.376;23.768;2023-03-13T07:50:20;93571.00;;;5.35;52.46
64402;BME280;50724;42.376;23.768;2023-03-13T07:53:21;93576.34;;;5.33;52.75
64402;BME280;50724;42.376;23.768;2023-03-13T07:56:22;93576.88;;;5.48;52.81
64402;BME280;50724;42.376;23.768;2023-03-13T07:59:23;93577.88;;;5.36;51.11
64402;BME280;50724;42.376;23.768;2023-03-13T08:02:24;93572.91;;;5.65;49.62
64402;BME280;50724;42.376;23.768;2023-03-13T08:05:24;93588.09;;;5.69;49.19
64402;BME280;50724;42.376;23.768;2023-03-13T08:08:25;93591.88;;;5.65;50.05
64402;BME280;50724;42.376;23.768;2023-03-13T08:11:26;93586.00;;;5.63;48.19
64402;BME280;50724;42.376;23.768;2023-03-13T08:14:27;93587.16;;;5.38;50.16
64402;BME280;50724;42.376;23.768;2023-03-13T08:17:28;93588.59;;;5.84;50.01
64402;BME280;50724;42.376;23.768;2023-03-13T08:20:29;93593.94;;;6.03;48.86
64402;BME280;50724;42.376;23.768;2023-03-13T08:23:30;93593.34;;;5.90;48.83
64402;BME280;50724;42.376;23.768;2023-03-13T08:26:31;93591.19;;;5.95;47.54
64402;BME280;50724;42.376;23.768;2023-03-13T08:29:32;93588.44;;;6.47;48.04
64402;BME280;50724;42.376;23.768;2023-03-13T08:32:34;93582.38;;;6.58;48.57
64402;BME280;50724;42.376;23.768;2023-03-13T08:35:34;93583.59;;;6.93;46.31
64402;BME280;50724;42.376;23.768;2023-03-13T08:38:35;93574.13;;;6.92;46.58
64402;BME280;50724;42.376;23.768;2023-03-13T08:41:36;93577.72;;;6.61;46.76
64402;BME280;50724;42.376;23.768;2023-03-13T08:44:36;93565.47;;;6.82;47.46
64402;BME280;50724;42.376;23.768;2023-03-13T08:47:37;93555.41;;;6.99;45.31
64402;BME280;50724;42.376;23.768;2023-03-13T08:50:37;93558.72;;;7.20;45.40
64402;BME280;50724;42.376;23.768;2023-03-13T08:53:40;93558.84;;;7.18;46.55
64402;BME280;50724;42.376;23.768;2023-03-13T08:56:41;93551.88;;;7.19;45.76
64402;BME280;50724;42.376;23.768;2023-03-13T08:59:42;93559.28;;;7.23;45.48
64402;BME280;50724;42.376;23.768;2023-03-13T09:02:43;93551.44;;;7.14;45.70
64402;BME280;50724;42.376;23.768;2023-03-13T09:05:43;93548.72;;;7.25;46.26
64402;BME280;50724;42.376;23.768;2023-03-13T09:08:47;93551.91;;;7.57;45.74
64402;BME280;50724;42.376;23.768;2023-03-13T09:11:47;93564.09;;;7.47;45.71
64402;BME280;50724;42.376;23.768;2023-03-13T09:14:47;93569.00;;;7.69;45.10
64402;BME280;50724;42.376;23.768;2023-03-13T09:17:48;93557.38;;;7.63;45.60
64402;BME280;50724;42.376;23.768;2023-03-13T09:20:49;93565.59;;;7.78;44.64
64402;BME280;50724;42.376;23.768;2023-03-13T09:23:58;93569.41;;;7.93;45.53
64402;BME280;50724;42.376;23.768;2023-03-13T09:26:59;93572.56;;;7.97;43.79
64402;BME280;50724;42.376;23.768;2023-03-13T09:30:09;93570.31;;;8.21;46.42
64402;BME280;50724;42.376;23.768;2023-03-13T09:33:09;93565.00;;;8.13;43.38
64402;BME280;50724;42.376;23.768;2023-03-13T09:36:10;93560.66;;;7.94;43.55
64402;BME280;50724;42.376;23.768;2023-03-13T09:39:11;93558.84;;;7.95;45.40
64402;BME280;50724;42.376;23.768;2023-03-13T09:42:26;93558.53;;;8.36;44.40
64402;BME280;50724;42.376;23.768;2023-03-13T09:45:32;93552.94;;;8.58;42.86
64402;BME280;50724;42.376;23.768;2023-03-13T09:48:38;93562.22;;;8.43;41.68
64402;BME280;50724;42.376;23.768;2023-03-13T09:51:42;93557.72;;;8.63;42.08
64402;BME280;50724;42.376;23.768;2023-03-13T09:54:52;93562.63;;;8.75;41.84
64402;BME280;50724;42.376;23.768;2023-03-13T10:01:16;93554.66;;;8.77;41.69
64402;BME280;50724;42.376;23.768;2023-03-13T10:04:34;93552.41;;;8.91;38.61
64402;BME280;50724;42.376;23.768;2023-03-13T10:07:37;93544.25;;;9.04;39.86
64402;BME280;50724;42.376;23.768;2023-03-13T10:10:57;93540.41;;;8.98;38.24
64402;BME280;50724;42.376;23.768;2023-03-13T10:14:11;93533.31;;;8.91;38.66
64402;BME280;50724;42.376;23.768;2023-03-13T10:20:33;93532.97;;;9.04;41.59
64402;BME280;50724;42.376;23.768;2023-03-13T10:23:59;93528.59;;;9.22;39.21
64402;BME280;50724;42.376;23.768;2023-03-13T10:27:03;93536.81;;;9.27;38.92
64402;BME280;50724;42.376;23.768;2023-03-13T10:30:03;93532.81;;;9.32;39.26
64402;BME280;50724;42.376;23.768;2023-03-13T10:36:10;93529.06;;;9.35;38.54
64402;BME280;50724;42.376;23.768;2023-03-13T10:39:21;93516.38;;;9.57;39.01
64402;BME280;50724;42.376;23.768;2023-03-13T10:42:26;93519.16;;;9.56;39.16
64402;BME280;50724;42.376;23.768;2023-03-13T10:45:31;93507.06;;;9.37;37.84
64402;BME280;50724;42.376;23.768;2023-03-13T10:48:35;93500.34;;;9.52;37.14
64402;BME280;50724;42.376;23.768;2023-03-13T10:51:38;93506.25;;;9.72;38.29
64402;BME280;50724;42.376;23.768;2023-03-13T10:54:39;93498.53;;;9.70;38.36
64402;BME280;50724;42.376;23.768;2023-03-13T10:57:41;93483.13;;;10.03;37.83
64402;BME280;50724;42.376;23.768;2023-03-13T11:00:43;93484.94;;;9.85;36.29
64402;BME280;50724;42.376;23.768;2023-03-13T11:03:45;93475.22;;;10.12;37.28
64402;BME280;50724;42.376;23.768;2023-03-13T11:06:50;93473.34;;;10.30;37.77
64402;BME280;50724;42.376;23.768;2023-03-13T11:10:00;93465.13;;;10.17;35.97
64402;BME280;50724;42.376;23.768;2023-03-13T11:13:00;93463.81;;;10.21;36.50
64402;BME280;50724;42.376;23.768;2023-03-13T11:16:21;93462.94;;;10.13;35.17
64402;BME280;50724;42.376;23.768;2023-03-13T11:26:34;93459.94;;;10.59;36.58
64402;BME280;50724;42.376;23.768;2023-03-13T11:32:44;93449.06;;;10.46;34.60
64402;BME280;50724;42.376;23.768;2023-03-13T11:36:00;93444.50;;;10.14;36.47
64402;BME280;50724;42.376;23.768;2023-03-13T11:39:05;93438.53;;;10.72;34.47
64402;BME280;50724;42.376;23.768;2023-03-13T11:49:14;93431.13;;;11.17;34.02
64402;BME280;50724;42.376;23.768;2023-03-13T11:52:46;93427.06;;;11.23;33.04
64402;BME280;50724;42.376;23.768;2023-03-13T12:02:45;93415.41;;;11.01;32.97
64402;BME280;50724;42.376;23.768;2023-03-13T12:05:52;93407.41;;;11.11;32.05
64402;BME280;50724;42.376;23.768;2023-03-13T12:09:28;93415.88;;;10.96;33.35
64402;BME280;50724;42.376;23.768;2023-03-13T12:12:41;93415.38;;;10.93;33.75
64402;BME280;50724;42.376;23.768;2023-03-13T12:15:50;93405.19;;;10.74;34.47
64402;BME280;50724;42.376;23.768;2023-03-13T12:18:52;93396.78;;;11.04;33.75
64402;BME280;50724;42.376;23.768;2023-03-13T12:21:56;93394.63;;;11.07;32.90
64402;BME280;50724;42.376;23.768;2023-03-13T12:25:27;93391.56;;;11.20;32.85
64402;BME280;50724;42.376;23.768;2023-03-13T12:28:38;93393.34;;;11.28;33.25
64402;BME280;50724;42.376;23.768;2023-03-13T12:31:50;93387.91;;;11.05;34.58
64402;BME280;50724;42.376;23.768;2023-03-13T12:38:05;93386.88;;;10.74;34.67
64402;BME280;50724;42.376;23.768;2023-03-13T12:44:54;93393.00;;;10.98;32.42
64402;BME280;50724;42.376;23.768;2023-03-13T12:54:37;93401.78;;;10.81;33.24
64402;BME280;50724;42.376;23.768;2023-03-13T13:00:44;93393.47;;;10.94;33.65
64402;BME280;50724;42.376;23.768;2023-03-13T13:03:54;93391.63;;;10.70;33.15
64402;BME280;50724;42.376;23.768;2023-03-13T13:07:20;93392.97;;;10.32;33.26
64402;BME280;50724;42.376;23.768;2023-03-13T13:10:24;93388.31;;;10.52;35.31
64402;BME280;50724;42.376;23.768;2023-03-13T13:13:29;93395.19;;;10.61;31.75
64402;BME280;50724;42.376;23.768;2023-03-13T13:16:31;93382.00;;;10.87;33.36
64402;BME280;50724;42.376;23.768;2023-03-13T13:25:39;93380.47;;;10.60;34.24
64402;BME280;50724;42.376;23.768;2023-03-13T13:28:39;93389.56;;;10.90;34.20
64402;BME280;50724;42.376;23.768;2023-03-13T13:44:26;93376.19;;;10.43;34.39
64402;BME280;50724;42.376;23.768;2023-03-13T13:47:29;93373.88;;;10.40;34.28
64402;BME280;50724;42.376;23.768;2023-03-13T13:50:30;93380.91;;;10.40;34.40
64402;BME280;50724;42.376;23.768;2023-03-13T13:57:05;93380.16;;;10.63;32.92
64402;BME280;50724;42.376;23.768;2023-03-13T14:03:27;93380.91;;;10.40;33.25
64402;BME280;50724;42.376;23.768;2023-03-13T14:06:29;93376.56;;;10.14;33.08
64402;BME280;50724;42.376;23.768;2023-03-13T14:12:54;93381.81;;;10.22;32.58
64402;BME280;50724;42.376;23.768;2023-03-13T14:15:55;93376.94;;;10.27;33.31
64402;BME280;50724;42.376;23.768;2023-03-13T14:18:56;93374.28;;;10.19;33.13
64402;BME280;50724;42.376;23.768;2023-03-13T14:22:04;93375.09;;;10.20;33.22
64402;BME280;50724;42.376;23.768;2023-03-13T14:25:05;93368.97;;;10.37;32.64
64402;BME280;50724;42.376;23.768;2023-03-13T14:28:23;93366.47;;;10.27;33.68
64402;BME280;50724;42.376;23.768;2023-03-13T14:31:35;93375.31;;;10.34;33.99
64402;BME280;50724;42.376;23.768;2023-03-13T14:34:36;93367.78;;;10.23;33.41
64402;BME280;50724;42.376;23.768;2023-03-13T14:37:50;93363.56;;;10.05;33.49
64402;BME280;50724;42.376;23.768;2023-03-13T14:40:53;93361.69;;;10.15;34.25
64402;BME280;50724;42.376;23.768;2023-03-13T14:44:02;93358.19;;;10.06;33.74
64402;BME280;50724;42.376;23.768;2023-03-13T14:47:05;93357.34;;;9.98;34.24
64402;BME280;50724;42.376;23.768;2023-03-13T14:50:11;93360.16;;;9.79;34.01
64402;BME280;50724;42.376;23.768;2023-03-13T14:53:20;93361.19;;;9.86;33.99
64402;BME280;50724;42.376;23.768;2023-03-13T14:56:32;93365.50;;;9.69;35.46
64402;BME280;50724;42.376;23.768;2023-03-13T14:59:34;93356.16;;;9.58;35.68
64402;BME280;50724;42.376;23.768;2023-03-13T15:02:34;93358.69;;;9.50;34.77
64402;BME280;50724;42.376;23.768;2023-03-13T15:05:38;93367.16;;;9.44;34.90
64402;BME280;50724;42.376;23.768;2023-03-13T15:12:13;93365.66;;;9.42;35.77
64402;BME280;50724;42.376;23.768;2023-03-13T15:15:14;93362.84;;;9.35;36.17
64402;BME280;50724;42.376;23.768;2023-03-13T15:18:21;93365.56;;;9.26;36.43
64402;BME280;50724;42.376;23.768;2023-03-13T15:21:29;93358.56;;;9.09;35.74
64402;BME280;50724;42.376;23.768;2023-03-13T15:24:43;93361.25;;;8.99;35.82
64402;BME280;50724;42.376;23.768;2023-03-13T15:27:44;93369.72;;;9.01;36.71
64402;BME280;50724;42.376;23.768;2023-03-13T15:30:47;93367.38;;;8.90;36.12
64402;BME280;50724;42.376;23.768;2023-03-13T15:33:54;93367.06;;;8.75;36.94
64402;BME280;50724;42.376;23.768;2023-03-13T15:36:55;93371.75;;;8.72;37.50
64402;BME280;50724;42.376;23.768;2023-03-13T15:39:56;93369.28;;;8.53;37.10
64402;BME280;50724;42.376;23.768;2023-03-13T15:42:57;93367.31;;;8.37;37.45
64402;BME280;50724;42.376;23.768;2023-03-13T15:45:58;93372.31;;;8.21;38.12
64402;BME280;50724;42.376;23.768;2023-03-13T15:48:58;93378.28;;;8.13;37.79
64402;BME280;50724;42.376;23.768;2023-03-13T15:51:59;93387.06;;;8.03;38.75
64402;BME280;50724;42.376;23.768;2023-03-13T15:54:59;93382.78;;;7.84;38.97
64402;BME280;50724;42.376;23.768;2023-03-13T15:58:00;93382.94;;;7.83;39.33
64402;BME280;50724;42.376;23.768;2023-03-13T16:01:00;93387.63;;;7.60;39.28
64402;BME280;50724;42.376;23.768;2023-03-13T16:04:01;93385.22;;;7.49;39.93
64402;BME280;50724;42.376;23.768;2023-03-13T16:07:08;93403.06;;;7.25;40.55
64402;BME280;50724;42.376;23.768;2023-03-13T16:10:21;93410.59;;;7.18;41.34
64402;BME280;50724;42.376;23.768;2023-03-13T16:13:22;93412.25;;;7.10;41.34
64402;BME280;50724;42.376;23.768;2023-03-13T16:16:27;93413.19;;;6.80;41.87
64402;BME280;50724;42.376;23.768;2023-03-13T16:19:29;93413.81;;;6.34;43.14
64402;BME280;50724;42.376;23.768;2023-03-13T16:22:30;93421.81;;;6.12;43.74
64402;BME280;50724;42.376;23.768;2023-03-13T16:25:30;93420.31;;;6.19;43.23
64402;BME280;50724;42.376;23.768;2023-03-13T16:28:31;93427.59;;;5.85;44.07
64402;BME280;50724;42.376;23.768;2023-03-13T16:31:32;93428.13;;;5.58;44.79
64402;BME280;50724;42.376;23.768;2023-03-13T16:34:32;93432.78;;;5.34;45.40
64402;BME280;50724;42.376;23.768;2023-03-13T16:37:33;93426.19;;;5.10;46.82
64402;BME280;50724;42.376;23.768;2023-03-13T16:40:34;93425.50;;;5.08;47.08
64402;BME280;50724;42.376;23.768;2023-03-13T16:43:34;93430.97;;;5.14;46.75
64402;BME280;50724;42.376;23.768;2023-03-13T16:46:37;93425.66;;;4.95;47.07
64402;BME280;50724;42.376;23.768;2023-03-13T16:49:38;93423.56;;;4.57;48.33
64402;BME280;50724;42.376;23.768;2023-03-13T16:52:38;93419.94;;;4.49;48.61
64402;BME280;50724;42.376;23.768;2023-03-13T16:55:38;93411.53;;;4.36;49.13
64402;BME280;50724;42.376;23.768;2023-03-13T16:58:39;93417.28;;;4.39;49.58
64402;BME280;50724;42.376;23.768;2023-03-13T17:01:39;93425.81;;;4.19;50.00
64402;BME280;50724;42.376;23.768;2023-03-13T17:04:43;93417.81;;;4.11;50.23
64402;BME280;50724;42.376;23.768;2023-03-13T17:07:45;93423.03;;;3.89;50.92
64402;BME280;50724;42.376;23.768;2023-03-13T17:10:47;93425.38;;;3.70;51.30
64402;BME280;50724;42.376;23.768;2023-03-13T17:13:48;93424.53;;;3.69;51.06
64402;BME280;50724;42.376;23.768;2023-03-13T17:16:49;93432.78;;;3.74;51.18
64402;BME280;50724;42.376;23.768;2023-03-13T17:19:50;93441.47;;;3.51;51.00
64402;BME280;50724;42.376;23.768;2023-03-13T17:22:50;93446.59;;;3.40;51.65
64402;BME280;50724;42.376;23.768;2023-03-13T17:25:51;93456.00;;;3.19;52.99
64402;BME280;50724;42.376;23.768;2023-03-13T17:28:54;93461.34;;;3.05;55.29